Sam Ratulangi Airport
WAMM : now visible

Airfield :











YOU CAN JOIN US ON...

 
LOGIN :

Register | Disclaimer

   EN    FR    IT 

 









Legend :    VFR   Marginal VFR   IFR   Intensive IFR   Very Intensive IFR
Visi :
Ceiling :
>= 8 km
>= 3000ft
5 to 8 km
1000 to 3000 ft
1500m to 5 km
500 to 1000 ft
800 to 1500m
200 to 500 ft
< 800m
< 200 ft
Symbols :   Thunderstorms  Fog  Heavy snow  Heavy precipitations  Wind > 20 kt






- Airport Elevation : 264 ft
- IATA code : MDC


WAMM - Sam Ratulangi

CURRENT METAR :
  • 210230Z 07007KT 360V120 9999 FEW021 32/23 Q1015 NOSIG

EXPIRED METARs :
  • 210200Z 06007KT 010V140 9999 FEW021 32/23 Q1015 NOSIG
  • 210130Z 06006KT 330V130 9999 FEW021 32/23 Q1015 NOSIG
  • 210100Z 07006KT 360V160 9999 FEW021 31/24 Q1015 NOSIG
  • 210030Z 08006KT 020V140 9999 FEW021 30/24 Q1015 NOSIG
  • 210000Z VRB02KT 9999 FEW021 29/25 Q1015 NOSIG

TAF TAF WAMM
Valid from the 21 at 00:00 until the 22 at 06:00 UTC


202300Z 2100/2206 04010KT 9999 SCT022
PROB40
TEMPO 2104/2108 5000 RA
BECMG 2109/2111 VRB02KT



MET'MAP, your aeronautical weather chart ! - Copyright ORBIFLY December 2007 - Disclaimer

ORBIFLY MET'MAP TEAM :

Programming & Development : Alexandra Zaïnal
Concept & original design : Baudouin d'Aumeries
Assistance for programming : Marc-Olivier Méhu
Technical & hardware support : Manuel Goepfert

Contact : metmap@orbifly.com




SOURCES & CREDITS :

   NOAA       Earth
Advisory